Daisetta, Texas
Current Conditions -  °F | °C
As of 2:15 PM on Friday 28 Nov 2014 (Local Time) from KBMT Reporting Station
Broken Clouds Broken Clouds  
Wind Chill: 67°   Ceiling: 3500
Heat Index: 67°   Visibility: 10mi
Dew Point: 54°   Wind: 10mph
Humidity: 62%   Direction: 140°SE
Pressure: 30.23"   Gusts: NA
Location:  30.11°N, 94.64°W
Report Text: KBMT 282015Z AUTO 14009KT 120V180 10SM BKN035 BKN046 20/12 A3023 RMK AO2 T01950120
Loading
Personal Weather Stations






























Interactive Weather Map New forecast layout! Learn more

10-Day Weather Forecast

Advertisements
Track Severe Weather on mobile